SBI4491 EFHK-UUDD
Flight info
| Callsign | SBI4491 |
|---|---|
| Flight time | 1h 30m |
| Altitude | 39000 |
| Route | ARVEP T82 RATMU INLOG T73 DESUD P164 IBOGI T287 ESOLO |
| Aircraft | A320/M-SDE2E3FGHIRWXY/LB1 |
Departure
| Time | 2026-05-05 18:54 |
|---|---|
| Airport | Helsinki Vantaa Airport (EFHK) |
Arrival
| Time | 2026-05-05 20:25 |
|---|---|
| Airport | Domodedovo International Airport (UUDD) |
| Time | Latitude | Longitude | Altitude | Speed | Heading |
|---|---|---|---|---|---|
| 2026-05-05 18:24 | 60.31307 | 24.96466 | 194 ft | 0 kts | 47° |
| 2026-05-05 18:39 | 60.31300 | 24.96450 | 194 ft | 2 kts | 47° |
| 2026-05-05 18:39 | 60.31290 | 24.96427 | 194 ft | 2 kts | 47° |
| 2026-05-05 18:40 | 60.31280 | 24.96405 | 194 ft | 2 kts | 47° |
| 2026-05-05 18:40 | 60.31269 | 24.96383 | 194 ft | 2 kts | 47° |
| 2026-05-05 18:40 | 60.31259 | 24.96361 | 194 ft | 2 kts | 47° |
| 2026-05-05 18:40 | 60.31249 | 24.96339 | 194 ft | 2 kts | 47° |
| 2026-05-05 18:41 | 60.31239 | 24.96317 | 193 ft | 2 kts | 47° |
| 2026-05-05 18:41 | 60.31232 | 24.96300 | 193 ft | 0 kts | 47° |
| 2026-05-05 18:41 | 60.31242 | 24.96312 | 193 ft | 3 kts | 16° |
| 2026-05-05 18:41 | 60.31261 | 24.96301 | 193 ft | 3 kts | 319° |
| 2026-05-05 18:42 | 60.31276 | 24.96272 | 193 ft | 0 kts | 317° |
| 2026-05-05 18:42 | 60.31277 | 24.96271 | 193 ft | 0 kts | 317° |
| 2026-05-05 18:45 | 60.31295 | 24.96237 | 192 ft | 0 kts | 317° |
| 2026-05-05 18:46 | 60.31319 | 24.96193 | 191 ft | 12 kts | 317° |
| 2026-05-05 18:46 | 60.31358 | 24.96039 | 189 ft | 13 kts | 249° |
| 2026-05-05 18:46 | 60.31295 | 24.95885 | 189 ft | 17 kts | 227° |
| 2026-05-05 18:46 | 60.31198 | 24.95671 | 190 ft | 17 kts | 228° |
| 2026-05-05 18:47 | 60.31177 | 24.95494 | 190 ft | 14 kts | 311° |
| 2026-05-05 18:47 | 60.31269 | 24.95322 | 188 ft | 21 kts | 317° |
| 2026-05-05 18:47 | 60.31374 | 24.95127 | 182 ft | 20 kts | 316° |
| 2026-05-05 18:47 | 60.31471 | 24.94982 | 176 ft | 15 kts | 13° |
| 2026-05-05 18:48 | 60.31560 | 24.95148 | 180 ft | 23 kts | 47° |
| 2026-05-05 18:48 | 60.31673 | 24.95396 | 179 ft | 24 kts | 47° |
| 2026-05-05 18:48 | 60.31788 | 24.95648 | 177 ft | 21 kts | 48° |
| 2026-05-05 18:48 | 60.31888 | 24.95871 | 178 ft | 21 kts | 47° |
| 2026-05-05 18:49 | 60.31987 | 24.96089 | 183 ft | 19 kts | 47° |
| 2026-05-05 18:49 | 60.32076 | 24.96285 | 186 ft | 18 kts | 47° |
| 2026-05-05 18:49 | 60.32180 | 24.96513 | 183 ft | 23 kts | 47° |
| 2026-05-05 18:49 | 60.32281 | 24.96736 | 177 ft | 14 kts | 48° |
| 2026-05-05 18:50 | 60.32336 | 24.96806 | 177 ft | 5 kts | 349° |
| 2026-05-05 18:50 | 60.32339 | 24.96804 | 177 ft | 0 kts | 342° |
| 2026-05-05 18:53 | 60.32379 | 24.96769 | 178 ft | 11 kts | 334° |
| 2026-05-05 18:53 | 60.32449 | 24.96697 | 179 ft | 11 kts | 328° |
| 2026-05-05 18:53 | 60.32457 | 24.96561 | 182 ft | 11 kts | 229° |
| 2026-05-05 18:53 | 60.32377 | 24.96382 | 187 ft | 35 kts | 228° |
| 2026-05-05 18:54 | 60.32031 | 24.95622 | 183 ft | 110 kts | 228° |
| 2026-05-05 18:54 | 60.31387 | 24.94204 | 336 ft | 152 kts | 229° |
| 2026-05-05 18:54 | 60.30662 | 24.92680 | 955 ft | 154 kts | 226° |
| 2026-05-05 18:54 | 60.29767 | 24.91489 | 1645 ft | 160 kts | 213° |
| 2026-05-05 18:55 | 60.28772 | 24.90502 | 2256 ft | 165 kts | 216° |
| 2026-05-05 18:55 | 60.27756 | 24.89217 | 2678 ft | 179 kts | 219° |
| 2026-05-05 18:55 | 60.26682 | 24.87761 | 3071 ft | 198 kts | 220° |
| 2026-05-05 18:55 | 60.25375 | 24.86504 | 3479 ft | 223 kts | 195° |
| 2026-05-05 18:56 | 60.23750 | 24.86754 | 3829 ft | 253 kts | 159° |
| 2026-05-05 18:56 | 60.22361 | 24.88959 | 4512 ft | 262 kts | 122° |
| 2026-05-05 18:56 | 60.21598 | 24.92135 | 5502 ft | 257 kts | 112° |
| 2026-05-05 18:56 | 60.20890 | 24.95443 | 6344 ft | 261 kts | 110° |
| 2026-05-05 18:57 | 60.20583 | 24.99047 | 6933 ft | 273 kts | 83° |
| 2026-05-05 18:57 | 60.21026 | 25.02837 | 7654 ft | 281 kts | 71° |
| 2026-05-05 18:57 | 60.21614 | 25.06571 | 8358 ft | 289 kts | 71° |
| 2026-05-05 18:57 | 60.22218 | 25.10467 | 9131 ft | 295 kts | 71° |
| 2026-05-05 18:58 | 60.22819 | 25.14447 | 9865 ft | 303 kts | 71° |
| 2026-05-05 18:58 | 60.23429 | 25.18568 | 10426 ft | 316 kts | 72° |
| 2026-05-05 18:58 | 60.24057 | 25.22871 | 10783 ft | 334 kts | 72° |
| 2026-05-05 18:58 | 60.24717 | 25.27440 | 11326 ft | 348 kts | 73° |
| 2026-05-05 18:59 | 60.25391 | 25.32138 | 11939 ft | 356 kts | 73° |
| 2026-05-05 18:59 | 60.26077 | 25.36943 | 12570 ft | 363 kts | 73° |
| 2026-05-05 18:59 | 60.26783 | 25.41897 | 13152 ft | 372 kts | 73° |
| 2026-05-05 18:59 | 60.27447 | 25.46961 | 13772 ft | 380 kts | 79° |
| 2026-05-05 19:00 | 60.27765 | 25.52271 | 14376 ft | 385 kts | 90° |
| 2026-05-05 19:00 | 60.27710 | 25.57627 | 15088 ft | 385 kts | 96° |
| 2026-05-05 19:00 | 60.27537 | 25.62913 | 15909 ft | 384 kts | 97° |
| 2026-05-05 19:00 | 60.27339 | 25.68318 | 16542 ft | 388 kts | 99° |
| 2026-05-05 19:01 | 60.27146 | 25.73719 | 17107 ft | 394 kts | 98° |
| 2026-05-05 19:01 | 60.26958 | 25.79257 | 17673 ft | 399 kts | 98° |
| 2026-05-05 19:01 | 60.26778 | 25.84816 | 18224 ft | 404 kts | 98° |
| 2026-05-05 19:01 | 60.26599 | 25.90421 | 18759 ft | 409 kts | 98° |
| 2026-05-05 19:02 | 60.26414 | 25.96191 | 19322 ft | 413 kts | 99° |
| 2026-05-05 19:02 | 60.26230 | 26.01926 | 19870 ft | 417 kts | 98° |
| 2026-05-05 19:02 | 60.26040 | 26.07791 | 20445 ft | 420 kts | 98° |
| 2026-05-05 19:02 | 60.25845 | 26.13621 | 21002 ft | 424 kts | 98° |
| 2026-05-05 19:03 | 60.25645 | 26.19584 | 21555 ft | 428 kts | 99° |
| 2026-05-05 19:03 | 60.25444 | 26.25472 | 22061 ft | 432 kts | 99° |
| 2026-05-05 19:03 | 60.25235 | 26.31563 | 22591 ft | 436 kts | 99° |
| 2026-05-05 19:03 | 60.25015 | 26.37585 | 23115 ft | 438 kts | 100° |
| 2026-05-05 19:04 | 60.24644 | 26.43712 | 23639 ft | 438 kts | 105° |
| 2026-05-05 19:04 | 60.24137 | 26.49720 | 24144 ft | 440 kts | 107° |
| 2026-05-05 19:04 | 60.23459 | 26.55633 | 24645 ft | 439 kts | 112° |
| 2026-05-05 19:04 | 60.22572 | 26.61499 | 25152 ft | 439 kts | 115° |
| 2026-05-05 19:05 | 60.21617 | 26.67328 | 25636 ft | 441 kts | 116° |
| 2026-05-05 19:05 | 60.20651 | 26.73190 | 26116 ft | 444 kts | 116° |
| 2026-05-05 19:05 | 60.19688 | 26.79088 | 26594 ft | 447 kts | 116° |
| 2026-05-05 19:05 | 60.18734 | 26.84945 | 27035 ft | 450 kts | 115° |
| 2026-05-05 19:06 | 60.17775 | 26.90901 | 27464 ft | 453 kts | 114° |
| 2026-05-05 19:06 | 60.16941 | 26.97006 | 27889 ft | 459 kts | 110° |
| 2026-05-05 19:06 | 60.16279 | 27.03306 | 28285 ft | 464 kts | 107° |
| 2026-05-05 19:06 | 60.15664 | 27.09685 | 28679 ft | 467 kts | 107° |
| 2026-05-05 19:07 | 60.15054 | 27.16083 | 29078 ft | 468 kts | 107° |
| 2026-05-05 19:07 | 60.14440 | 27.22449 | 29450 ft | 470 kts | 107° |
| 2026-05-05 19:07 | 60.13812 | 27.28864 | 29796 ft | 472 kts | 107° |
| 2026-05-05 19:07 | 60.13178 | 27.35287 | 30139 ft | 474 kts | 107° |
| 2026-05-05 19:08 | 60.12533 | 27.41767 | 30461 ft | 476 kts | 107° |
| 2026-05-05 19:08 | 60.11885 | 27.48232 | 30754 ft | 478 kts | 107° |
| 2026-05-05 19:08 | 60.11224 | 27.54764 | 31050 ft | 480 kts | 107° |
| 2026-05-05 19:08 | 60.10560 | 27.61298 | 31334 ft | 481 kts | 106° |
| 2026-05-05 19:09 | 60.09891 | 27.67862 | 31594 ft | 483 kts | 107° |
| 2026-05-05 19:09 | 60.09217 | 27.74453 | 31852 ft | 485 kts | 107° |
| 2026-05-05 19:09 | 60.08537 | 27.81082 | 32098 ft | 487 kts | 107° |
| 2026-05-05 19:09 | 60.07862 | 27.87610 | 32349 ft | 488 kts | 107° |
| 2026-05-05 19:10 | 60.07171 | 27.94259 | 32589 ft | 489 kts | 107° |
| 2026-05-05 19:10 | 60.06474 | 28.00899 | 32830 ft | 491 kts | 107° |
| 2026-05-05 19:10 | 60.05766 | 28.07631 | 33050 ft | 492 kts | 107° |
| 2026-05-05 19:10 | 60.05064 | 28.14242 | 33285 ft | 493 kts | 107° |
| 2026-05-05 19:11 | 60.04346 | 28.20999 | 33510 ft | 495 kts | 107° |
| 2026-05-05 19:11 | 60.03636 | 28.27642 | 33736 ft | 495 kts | 107° |
| 2026-05-05 19:11 | 60.02914 | 28.34357 | 33962 ft | 496 kts | 107° |
| 2026-05-05 19:11 | 60.02192 | 28.41033 | 34130 ft | 497 kts | 107° |
| 2026-05-05 19:12 | 60.01457 | 28.47822 | 34337 ft | 497 kts | 107° |
| 2026-05-05 19:12 | 60.00728 | 28.54499 | 34560 ft | 496 kts | 107° |
| 2026-05-05 19:12 | 59.99987 | 28.61219 | 34784 ft | 495 kts | 107° |
| 2026-05-05 19:12 | 59.99253 | 28.67874 | 34964 ft | 494 kts | 107° |
| 2026-05-05 19:13 | 59.98510 | 28.74572 | 35149 ft | 493 kts | 108° |
| 2026-05-05 19:13 | 59.97778 | 28.81152 | 35318 ft | 492 kts | 108° |
| 2026-05-05 19:13 | 59.97023 | 28.87794 | 35494 ft | 491 kts | 108° |
| 2026-05-05 19:13 | 59.96256 | 28.94397 | 35657 ft | 490 kts | 108° |
| 2026-05-05 19:14 | 59.95483 | 29.00993 | 35844 ft | 489 kts | 108° |
| 2026-05-05 19:14 | 59.94709 | 29.07556 | 36003 ft | 488 kts | 108° |
| 2026-05-05 19:14 | 59.93929 | 29.14142 | 36162 ft | 488 kts | 108° |
| 2026-05-05 19:14 | 59.93157 | 29.20641 | 36324 ft | 487 kts | 108° |
| 2026-05-05 19:15 | 59.92378 | 29.27174 | 36498 ft | 486 kts | 108° |
| 2026-05-05 19:15 | 59.91593 | 29.33722 | 36644 ft | 484 kts | 108° |
| 2026-05-05 19:15 | 59.90810 | 29.40235 | 36813 ft | 483 kts | 107° |
| 2026-05-05 19:15 | 59.90032 | 29.46659 | 36949 ft | 483 kts | 108° |
| 2026-05-05 19:16 | 59.89233 | 29.53162 | 37107 ft | 483 kts | 108° |
| 2026-05-05 19:16 | 59.88427 | 29.59631 | 37249 ft | 483 kts | 108° |
| 2026-05-05 19:16 | 59.87625 | 29.66071 | 37385 ft | 483 kts | 108° |
| 2026-05-05 19:16 | 59.86829 | 29.72518 | 37515 ft | 483 kts | 108° |
| 2026-05-05 19:17 | 59.86033 | 29.78959 | 37640 ft | 483 kts | 108° |
| 2026-05-05 19:17 | 59.85240 | 29.85356 | 37754 ft | 483 kts | 108° |
| 2026-05-05 19:17 | 59.84428 | 29.91891 | 37867 ft | 483 kts | 108° |
| 2026-05-05 19:17 | 59.83624 | 29.98313 | 37982 ft | 483 kts | 108° |
| 2026-05-05 19:18 | 59.82808 | 30.04794 | 38092 ft | 483 kts | 108° |
| 2026-05-05 19:18 | 59.82000 | 30.11182 | 38199 ft | 482 kts | 108° |
| 2026-05-05 19:18 | 59.81174 | 30.17618 | 38309 ft | 482 kts | 109° |
| 2026-05-05 19:18 | 59.80342 | 30.24030 | 38408 ft | 482 kts | 108° |
| 2026-05-05 19:19 | 59.79512 | 30.30395 | 38509 ft | 482 kts | 108° |
| 2026-05-05 19:19 | 59.78669 | 30.36843 | 38591 ft | 482 kts | 108° |
| 2026-05-05 19:19 | 59.77834 | 30.43208 | 38700 ft | 482 kts | 108° |
| 2026-05-05 19:19 | 59.76982 | 30.49678 | 38744 ft | 483 kts | 108° |
| 2026-05-05 19:20 | 59.75285 | 30.62505 | 38751 ft | 482 kts | 108° |
| 2026-05-05 19:20 | 59.73593 | 30.75231 | 38757 ft | 482 kts | 109° |
| 2026-05-05 19:21 | 59.71883 | 30.87982 | 38754 ft | 482 kts | 109° |
| 2026-05-05 19:21 | 59.70147 | 31.00769 | 38749 ft | 481 kts | 109° |
| 2026-05-05 19:22 | 59.68198 | 31.13364 | 38757 ft | 478 kts | 115° |
| 2026-05-05 19:22 | 59.65531 | 31.25248 | 38770 ft | 473 kts | 123° |
| 2026-05-05 19:23 | 59.62407 | 31.36637 | 38754 ft | 473 kts | 123° |
| 2026-05-05 19:23 | 59.59278 | 31.47998 | 38750 ft | 473 kts | 123° |
| 2026-05-05 19:24 | 59.56166 | 31.59310 | 38764 ft | 472 kts | 123° |
| 2026-05-05 19:24 | 59.53044 | 31.70615 | 38754 ft | 471 kts | 124° |
| 2026-05-05 19:25 | 59.49804 | 31.81707 | 38754 ft | 467 kts | 129° |
| 2026-05-05 19:25 | 59.45982 | 31.91906 | 38763 ft | 462 kts | 136° |
| 2026-05-05 19:26 | 59.41767 | 32.01322 | 38767 ft | 461 kts | 137° |
| 2026-05-05 19:26 | 59.37564 | 32.10683 | 38756 ft | 461 kts | 137° |
| 2026-05-05 19:27 | 59.33340 | 32.20067 | 38766 ft | 461 kts | 137° |
| 2026-05-05 19:27 | 59.29119 | 32.29412 | 38761 ft | 461 kts | 137° |
| 2026-05-05 19:28 | 59.24898 | 32.38717 | 38755 ft | 460 kts | 137° |
| 2026-05-05 19:28 | 59.20663 | 32.48011 | 38760 ft | 459 kts | 137° |
| 2026-05-05 19:29 | 59.16431 | 32.57265 | 38751 ft | 458 kts | 137° |
| 2026-05-05 19:29 | 59.12191 | 32.66495 | 38749 ft | 458 kts | 137° |
| 2026-05-05 19:30 | 59.07972 | 32.75673 | 38756 ft | 458 kts | 137° |
| 2026-05-05 19:30 | 59.03719 | 32.84876 | 38760 ft | 459 kts | 137° |
| 2026-05-05 19:31 | 58.99460 | 32.94039 | 38761 ft | 459 kts | 137° |
| 2026-05-05 19:31 | 58.95212 | 33.03146 | 38758 ft | 458 kts | 138° |
| 2026-05-05 19:32 | 58.90948 | 33.12236 | 38751 ft | 458 kts | 138° |
| 2026-05-05 19:32 | 58.86655 | 33.21330 | 38748 ft | 458 kts | 138° |
| 2026-05-05 19:33 | 58.82379 | 33.30347 | 38752 ft | 458 kts | 138° |
| 2026-05-05 19:33 | 58.78118 | 33.39321 | 38743 ft | 457 kts | 138° |
| 2026-05-05 19:34 | 58.73835 | 33.48314 | 38751 ft | 458 kts | 138° |
| 2026-05-05 19:35 | 58.67387 | 33.61794 | 38761 ft | 458 kts | 137° |
| 2026-05-05 19:35 | 58.63099 | 33.70731 | 38759 ft | 458 kts | 139° |
| 2026-05-05 19:36 | 58.58808 | 33.79654 | 38762 ft | 457 kts | 139° |
| 2026-05-05 19:36 | 58.54489 | 33.88577 | 38759 ft | 457 kts | 139° |
| 2026-05-05 19:37 | 58.50195 | 33.97408 | 38759 ft | 457 kts | 139° |
| 2026-05-05 19:37 | 58.45864 | 34.06277 | 38751 ft | 457 kts | 139° |
| 2026-05-05 19:38 | 58.41554 | 34.15071 | 38752 ft | 457 kts | 139° |
| 2026-05-05 19:38 | 58.37219 | 34.23881 | 38760 ft | 457 kts | 138° |
| 2026-05-05 19:39 | 58.32880 | 34.32673 | 38759 ft | 457 kts | 139° |
| 2026-05-05 19:39 | 58.28564 | 34.41377 | 38756 ft | 457 kts | 138° |
| 2026-05-05 19:40 | 58.24206 | 34.50132 | 38754 ft | 457 kts | 138° |
| 2026-05-05 19:40 | 58.19764 | 34.58675 | 38756 ft | 453 kts | 143° |
| 2026-05-05 19:41 | 58.15002 | 34.66347 | 38756 ft | 452 kts | 146° |
| 2026-05-05 19:41 | 58.10207 | 34.73959 | 38763 ft | 452 kts | 146° |
| 2026-05-05 19:42 | 58.05425 | 34.81514 | 38788 ft | 452 kts | 146° |
| 2026-05-05 19:42 | 58.00611 | 34.89085 | 38787 ft | 453 kts | 146° |
| 2026-05-05 19:43 | 57.95791 | 34.96634 | 38797 ft | 452 kts | 146° |
| 2026-05-05 19:43 | 57.90956 | 35.04176 | 38787 ft | 453 kts | 146° |
| 2026-05-05 19:44 | 57.86114 | 35.11675 | 38776 ft | 452 kts | 146° |
| 2026-05-05 19:44 | 57.81269 | 35.19150 | 38770 ft | 453 kts | 146° |
| 2026-05-05 19:45 | 57.76445 | 35.26597 | 38776 ft | 452 kts | 146° |
| 2026-05-05 19:45 | 57.71627 | 35.34008 | 38783 ft | 452 kts | 146° |
| 2026-05-05 19:46 | 57.66792 | 35.41445 | 38777 ft | 452 kts | 144° |
| 2026-05-05 19:46 | 57.62373 | 35.49907 | 38791 ft | 460 kts | 133° |
| 2026-05-05 19:47 | 57.58839 | 35.59828 | 38780 ft | 467 kts | 121° |
| 2026-05-05 19:47 | 57.56291 | 35.70937 | 38791 ft | 471 kts | 113° |
| 2026-05-05 19:48 | 57.54100 | 35.82415 | 38775 ft | 471 kts | 113° |
| 2026-05-05 19:48 | 57.51866 | 35.93757 | 38777 ft | 470 kts | 115° |
| 2026-05-05 19:49 | 57.48920 | 36.04472 | 38794 ft | 464 kts | 127° |
| 2026-05-05 19:49 | 57.44966 | 36.13757 | 38787 ft | 456 kts | 139° |
| 2026-05-05 19:50 | 57.40266 | 36.21385 | 38796 ft | 450 kts | 147° |
| 2026-05-05 19:50 | 57.35375 | 36.28507 | 38801 ft | 449 kts | 147° |
| 2026-05-05 19:51 | 57.30476 | 36.35652 | 38648 ft | 444 kts | 147° |
| 2026-05-05 19:51 | 57.28073 | 36.39169 | 38197 ft | 443 kts | 147° |
| 2026-05-05 19:51 | 57.25699 | 36.42643 | 37665 ft | 442 kts | 147° |
| 2026-05-05 19:51 | 57.23280 | 36.46179 | 37204 ft | 440 kts | 147° |
| 2026-05-05 19:52 | 57.20918 | 36.49621 | 36669 ft | 439 kts | 148° |
| 2026-05-05 19:52 | 57.18500 | 36.53137 | 36149 ft | 440 kts | 148° |
| 2026-05-05 19:52 | 57.16106 | 36.56610 | 35591 ft | 442 kts | 148° |
| 2026-05-05 19:52 | 57.13720 | 36.60072 | 35025 ft | 445 kts | 149° |
| 2026-05-05 19:53 | 57.11271 | 36.63612 | 34363 ft | 446 kts | 149° |
| 2026-05-05 19:53 | 57.08858 | 36.67094 | 33690 ft | 447 kts | 149° |
| 2026-05-05 19:53 | 57.06422 | 36.70620 | 32958 ft | 449 kts | 149° |
| 2026-05-05 19:53 | 57.03987 | 36.74133 | 32173 ft | 453 kts | 149° |
| 2026-05-05 19:54 | 57.01494 | 36.77719 | 31414 ft | 454 kts | 148° |
| 2026-05-05 19:54 | 56.99044 | 36.81236 | 30863 ft | 451 kts | 148° |
| 2026-05-05 19:54 | 56.96594 | 36.84756 | 30365 ft | 447 kts | 148° |
| 2026-05-05 19:54 | 56.94156 | 36.88237 | 29840 ft | 443 kts | 148° |
| 2026-05-05 19:55 | 56.91740 | 36.91659 | 29303 ft | 440 kts | 148° |
| 2026-05-05 19:55 | 56.89324 | 36.95072 | 28792 ft | 437 kts | 148° |
| 2026-05-05 19:55 | 56.86926 | 36.98445 | 28314 ft | 432 kts | 148° |
| 2026-05-05 19:55 | 56.84573 | 37.01741 | 27838 ft | 427 kts | 149° |
| 2026-05-05 19:56 | 56.82135 | 37.04763 | 27326 ft | 421 kts | 154° |
| 2026-05-05 19:56 | 56.79639 | 37.07296 | 26839 ft | 413 kts | 160° |
| 2026-05-05 19:56 | 56.77050 | 37.09496 | 26339 ft | 408 kts | 162° |
| 2026-05-05 19:56 | 56.74469 | 37.11614 | 25832 ft | 406 kts | 161° |
| 2026-05-05 19:57 | 56.71946 | 37.13681 | 25357 ft | 402 kts | 161° |
| 2026-05-05 19:57 | 56.69402 | 37.15770 | 24847 ft | 400 kts | 161° |
| 2026-05-05 19:57 | 56.66881 | 37.17841 | 24250 ft | 400 kts | 161° |
| 2026-05-05 19:57 | 56.64360 | 37.19911 | 23778 ft | 400 kts | 161° |
| 2026-05-05 19:58 | 56.61804 | 37.22013 | 23713 ft | 403 kts | 161° |
| 2026-05-05 19:58 | 56.59266 | 37.24097 | 24160 ft | 406 kts | 161° |
| 2026-05-05 19:58 | 56.56709 | 37.26197 | 24647 ft | 404 kts | 161° |
| 2026-05-05 19:58 | 56.54155 | 37.28291 | 24812 ft | 404 kts | 161° |
| 2026-05-05 19:59 | 56.51614 | 37.30371 | 24815 ft | 403 kts | 161° |
| 2026-05-05 19:59 | 56.49094 | 37.32435 | 24619 ft | 398 kts | 161° |
| 2026-05-05 19:59 | 56.46571 | 37.34500 | 24089 ft | 396 kts | 161° |
| 2026-05-05 19:59 | 56.44093 | 37.36521 | 23554 ft | 395 kts | 160° |
| 2026-05-05 20:00 | 56.41607 | 37.38551 | 23072 ft | 392 kts | 160° |
| 2026-05-05 20:00 | 56.39115 | 37.40582 | 22600 ft | 389 kts | 161° |
| 2026-05-05 20:00 | 56.36688 | 37.42557 | 22140 ft | 386 kts | 160° |
| 2026-05-05 20:00 | 56.34272 | 37.44520 | 21688 ft | 383 kts | 160° |
| 2026-05-05 20:01 | 56.31843 | 37.46491 | 21247 ft | 379 kts | 160° |
| 2026-05-05 20:01 | 56.29480 | 37.48404 | 20802 ft | 376 kts | 160° |
| 2026-05-05 20:01 | 56.27114 | 37.50317 | 20352 ft | 373 kts | 160° |
| 2026-05-05 20:01 | 56.24755 | 37.52224 | 19898 ft | 370 kts | 160° |
| 2026-05-05 20:02 | 56.22406 | 37.54121 | 19445 ft | 368 kts | 160° |
| 2026-05-05 20:02 | 56.20104 | 37.55975 | 19005 ft | 364 kts | 160° |
| 2026-05-05 20:02 | 56.17821 | 37.57813 | 18843 ft | 363 kts | 160° |
| 2026-05-05 20:02 | 56.15511 | 37.59665 | 18839 ft | 363 kts | 160° |
| 2026-05-05 20:03 | 56.13227 | 37.61497 | 18832 ft | 363 kts | 160° |
| 2026-05-05 20:03 | 56.10943 | 37.63333 | 18672 ft | 358 kts | 160° |
| 2026-05-05 20:03 | 56.08676 | 37.65147 | 18197 ft | 356 kts | 161° |
| 2026-05-05 20:03 | 56.06438 | 37.66942 | 17731 ft | 355 kts | 161° |
| 2026-05-05 20:04 | 56.04200 | 37.68738 | 17281 ft | 352 kts | 160° |
| 2026-05-05 20:04 | 56.01975 | 37.70520 | 16839 ft | 350 kts | 161° |
| 2026-05-05 20:04 | 55.99752 | 37.72295 | 16380 ft | 348 kts | 161° |
| 2026-05-05 20:04 | 55.97556 | 37.74044 | 15955 ft | 346 kts | 161° |
| 2026-05-05 20:05 | 55.95394 | 37.75838 | 15514 ft | 345 kts | 158° |
| 2026-05-05 20:05 | 55.93328 | 37.77908 | 15071 ft | 346 kts | 153° |
| 2026-05-05 20:05 | 55.91338 | 37.80310 | 14856 ft | 345 kts | 149° |
| 2026-05-05 20:05 | 55.89365 | 37.82807 | 14853 ft | 347 kts | 149° |
| 2026-05-05 20:06 | 55.87372 | 37.85165 | 14819 ft | 342 kts | 158° |
| 2026-05-05 20:06 | 55.85198 | 37.86472 | 14593 ft | 327 kts | 176° |
| 2026-05-05 20:06 | 55.82996 | 37.86682 | 14406 ft | 312 kts | 185° |
| 2026-05-05 20:06 | 55.80835 | 37.86679 | 14205 ft | 303 kts | 185° |
| 2026-05-05 20:07 | 55.78752 | 37.86669 | 13884 ft | 300 kts | 185° |
| 2026-05-05 20:07 | 55.76680 | 37.86671 | 13493 ft | 298 kts | 185° |
| 2026-05-05 20:07 | 55.74608 | 37.86684 | 13105 ft | 297 kts | 185° |
| 2026-05-05 20:07 | 55.72575 | 37.86706 | 12718 ft | 295 kts | 185° |
| 2026-05-05 20:08 | 55.70540 | 37.86734 | 12315 ft | 293 kts | 185° |
| 2026-05-05 20:08 | 55.68492 | 37.86764 | 11923 ft | 292 kts | 185° |
| 2026-05-05 20:08 | 55.66482 | 37.86795 | 11555 ft | 290 kts | 185° |
| 2026-05-05 20:08 | 55.64469 | 37.86826 | 11181 ft | 289 kts | 184° |
| 2026-05-05 20:09 | 55.62470 | 37.86873 | 10826 ft | 287 kts | 184° |
| 2026-05-05 20:09 | 55.60489 | 37.86923 | 10461 ft | 285 kts | 184° |
| 2026-05-05 20:09 | 55.58529 | 37.86974 | 10090 ft | 284 kts | 184° |
| 2026-05-05 20:09 | 55.56552 | 37.87064 | 9716 ft | 284 kts | 179° |
| 2026-05-05 20:10 | 55.54639 | 37.87911 | 9329 ft | 290 kts | 161° |
| 2026-05-05 20:10 | 55.52906 | 37.89719 | 8964 ft | 293 kts | 148° |
| 2026-05-05 20:10 | 55.51274 | 37.91879 | 8579 ft | 293 kts | 147° |
| 2026-05-05 20:10 | 55.49660 | 37.94061 | 8208 ft | 291 kts | 147° |
| 2026-05-05 20:11 | 55.48054 | 37.96202 | 7916 ft | 287 kts | 147° |
| 2026-05-05 20:11 | 55.46468 | 37.98273 | 7868 ft | 288 kts | 147° |
| 2026-05-05 20:11 | 55.44837 | 38.00386 | 7864 ft | 288 kts | 147° |
| 2026-05-05 20:11 | 55.43242 | 38.02449 | 7858 ft | 288 kts | 147° |
| 2026-05-05 20:12 | 55.41630 | 38.04528 | 7857 ft | 288 kts | 147° |
| 2026-05-05 20:12 | 55.40001 | 38.06630 | 7857 ft | 288 kts | 147° |
| 2026-05-05 20:12 | 55.38397 | 38.08699 | 7860 ft | 288 kts | 147° |
| 2026-05-05 20:12 | 55.36788 | 38.10770 | 7856 ft | 288 kts | 147° |
| 2026-05-05 20:13 | 55.35180 | 38.12837 | 7849 ft | 289 kts | 147° |
| 2026-05-05 20:13 | 55.33555 | 38.14924 | 7849 ft | 289 kts | 147° |
| 2026-05-05 20:13 | 55.31919 | 38.17023 | 7866 ft | 290 kts | 147° |
| 2026-05-05 20:13 | 55.30293 | 38.19105 | 7857 ft | 290 kts | 147° |
| 2026-05-05 20:14 | 55.28675 | 38.21176 | 7852 ft | 289 kts | 147° |
| 2026-05-05 20:14 | 55.27062 | 38.23239 | 7883 ft | 289 kts | 147° |
| 2026-05-05 20:14 | 55.25436 | 38.25309 | 7864 ft | 289 kts | 148° |
| 2026-05-05 20:14 | 55.23780 | 38.27322 | 7883 ft | 288 kts | 149° |
| 2026-05-05 20:15 | 55.22139 | 38.29288 | 7865 ft | 288 kts | 149° |
| 2026-05-05 20:15 | 55.20498 | 38.31252 | 7858 ft | 288 kts | 149° |
| 2026-05-05 20:15 | 55.18730 | 38.32759 | 7832 ft | 279 kts | 174° |
| 2026-05-05 20:15 | 55.16865 | 38.32558 | 7629 ft | 264 kts | 200° |
| 2026-05-05 20:16 | 55.15172 | 38.31437 | 7174 ft | 264 kts | 206° |
| 2026-05-05 20:16 | 55.13458 | 38.30204 | 6742 ft | 266 kts | 204° |
| 2026-05-05 20:16 | 55.11763 | 38.28962 | 6352 ft | 263 kts | 213° |
| 2026-05-05 20:16 | 55.10558 | 38.26743 | 5946 ft | 256 kts | 248° |
| 2026-05-05 20:17 | 55.10365 | 38.23715 | 5595 ft | 253 kts | 281° |
| 2026-05-05 20:17 | 55.10888 | 38.20829 | 5218 ft | 254 kts | 286° |
| 2026-05-05 20:17 | 55.11409 | 38.17895 | 4799 ft | 255 kts | 284° |
| 2026-05-05 20:17 | 55.11903 | 38.14940 | 4537 ft | 249 kts | 288° |
| 2026-05-05 20:18 | 55.12820 | 38.12470 | 4328 ft | 246 kts | 321° |
| 2026-05-05 20:18 | 55.14382 | 38.11437 | 4200 ft | 241 kts | 348° |
| 2026-05-05 20:18 | 55.16020 | 38.11068 | 4049 ft | 234 kts | 349° |
| 2026-05-05 20:18 | 55.17586 | 38.10683 | 3894 ft | 226 kts | 348° |
| 2026-05-05 20:19 | 55.19115 | 38.10259 | 3738 ft | 218 kts | 347° |
| 2026-05-05 20:19 | 55.20586 | 38.09820 | 3577 ft | 210 kts | 346° |
| 2026-05-05 20:19 | 55.22006 | 38.09380 | 3423 ft | 203 kts | 346° |
| 2026-05-05 20:19 | 55.23336 | 38.08843 | 3292 ft | 192 kts | 338° |
| 2026-05-05 20:20 | 55.24495 | 38.08017 | 3124 ft | 173 kts | 329° |
| 2026-05-05 20:20 | 55.25557 | 38.06970 | 3066 ft | 182 kts | 325° |
| 2026-05-05 20:20 | 55.26649 | 38.05790 | 3030 ft | 184 kts | 323° |
| 2026-05-05 20:20 | 55.27707 | 38.04576 | 3011 ft | 184 kts | 322° |
| 2026-05-05 20:21 | 55.28760 | 38.03324 | 2996 ft | 183 kts | 322° |
| 2026-05-05 20:21 | 55.29776 | 38.02101 | 2822 ft | 170 kts | 321° |
| 2026-05-05 20:21 | 55.30714 | 38.00967 | 2613 ft | 158 kts | 321° |
| 2026-05-05 20:21 | 55.31575 | 37.99925 | 2395 ft | 145 kts | 321° |
| 2026-05-05 20:22 | 55.32383 | 37.98944 | 2202 ft | 141 kts | 321° |
| 2026-05-05 20:22 | 55.33189 | 37.97965 | 2028 ft | 141 kts | 321° |
| 2026-05-05 20:22 | 55.33990 | 37.96996 | 1850 ft | 140 kts | 321° |
| 2026-05-05 20:22 | 55.34800 | 37.96017 | 1668 ft | 140 kts | 322° |
| 2026-05-05 20:23 | 55.35598 | 37.95054 | 1483 ft | 140 kts | 323° |
| 2026-05-05 20:23 | 55.36400 | 37.94091 | 1288 ft | 139 kts | 323° |
| 2026-05-05 20:23 | 55.37190 | 37.93123 | 1100 ft | 139 kts | 323° |
| 2026-05-05 20:23 | 55.37981 | 37.92158 | 923 ft | 139 kts | 324° |
| 2026-05-05 20:24 | 55.38777 | 37.91213 | 744 ft | 138 kts | 325° |
| 2026-05-05 20:24 | 55.39572 | 37.90255 | 565 ft | 136 kts | 325° |
| 2026-05-05 20:24 | 55.40281 | 37.89399 | 548 ft | 105 kts | 325° |
| 2026-05-05 20:24 | 55.40741 | 37.88844 | 565 ft | 55 kts | 326° |
| 2026-05-05 20:25 | 55.40965 | 37.88580 | 570 ft | 27 kts | 326° |
| 2026-05-05 20:25 | 55.41088 | 37.88438 | 570 ft | 20 kts | 333° |
| 2026-05-05 20:25 | 55.41216 | 37.88370 | 572 ft | 18 kts | 349° |
| 2026-05-05 20:25 | 55.41326 | 37.88349 | 572 ft | 10 kts | 355° |
| 2026-05-05 20:26 | 55.41379 | 37.88404 | 573 ft | 10 kts | 82° |
| 2026-05-05 20:26 | 55.41349 | 37.88488 | 573 ft | 0 kts | 146° |
| 2026-05-05 20:26 | 55.41348 | 37.88488 | 573 ft | 0 kts | 146° |
| 2026-05-05 20:26 | 55.41346 | 37.88492 | 573 ft | 3 kts | 146° |
| 2026-05-05 20:27 | 55.41291 | 37.88558 | 572 ft | 13 kts | 146° |
| 2026-05-05 20:27 | 55.41211 | 37.88653 | 570 ft | 14 kts | 146° |
| 2026-05-05 20:27 | 55.41122 | 37.88760 | 569 ft | 15 kts | 146° |
| 2026-05-05 20:27 | 55.41030 | 37.88870 | 569 ft | 16 kts | 146° |
| 2026-05-05 20:28 | 55.40935 | 37.88985 | 568 ft | 17 kts | 145° |
| 2026-05-05 20:28 | 55.40833 | 37.89108 | 564 ft | 16 kts | 144° |
| 2026-05-05 20:28 | 55.40778 | 37.89294 | 562 ft | 18 kts | 89° |
| 2026-05-05 20:28 | 55.40827 | 37.89488 | 562 ft | 13 kts | 55° |
| 2026-05-05 20:29 | 55.40886 | 37.89602 | 565 ft | 12 kts | 55° |
| 2026-05-05 20:29 | 55.40942 | 37.89748 | 565 ft | 17 kts | 55° |
| 2026-05-05 20:29 | 55.41011 | 37.89924 | 566 ft | 17 kts | 56° |
| 2026-05-05 20:29 | 55.41073 | 37.90083 | 567 ft | 14 kts | 56° |
| 2026-05-05 20:30 | 55.41131 | 37.90232 | 567 ft | 12 kts | 55° |
| 2026-05-05 20:30 | 55.41186 | 37.90295 | 568 ft | 9 kts | 349° |
| 2026-05-05 20:30 | 55.41239 | 37.90243 | 571 ft | 7 kts | 324° |
| 2026-05-05 20:30 | 55.41272 | 37.90202 | 573 ft | 4 kts | 325° |
| 2026-05-05 20:31 | 55.41294 | 37.90174 | 574 ft | 5 kts | 325° |
| 2026-05-05 20:31 | 55.41322 | 37.90155 | 575 ft | 3 kts | 358° |
| 2026-05-05 20:31 | 55.41347 | 37.90176 | 576 ft | 6 kts | 48° |
| 2026-05-05 20:31 | 55.41368 | 37.90222 | 576 ft | 2 kts | 53° |
| 2026-05-05 20:32 | 55.41373 | 37.90234 | 575 ft | 0 kts | 53° |